PTSA/KSA METAR and TAF weather

Enter ICAO airport designator
Station Type Date Time Source
PTSA METAR 2019/06/18 03:50 UTC NOAA

PTSA 180350Z 07006KT 10SM SCT020TCU BKN130 BKN300 31/25 A2972 RMK TCU SW LAST


Station Type Date Time Source
PTSA Decoded METAR 2019/06/18 03:50 UTC NOAA

Kosrae Island, Kosrae Airport, Micronesia, Federated States of (PTSA) 05-21N 162-57E
Jun 17, 2019 - 11:50 PM EDT / 2019.06.18 0350 UTC
Wind: from the ENE (070 degrees) at 7 MPH (6 KT):0
Visibility: 10 mile(s):0
Sky conditions: mostly cloudy
Weather: Towering cumulus clouds observed
Temperature: 87 F (31 C)
Heat index: 97.5 F (36.4 C):1
Dew Point: 77 F (25 C)
Relative Humidity: 70%
Pressure (altimeter): 29.72 in. Hg (1006 hPa)
ob: PTSA 180350Z 07006KT 10SM SCT020TCU BKN130 BKN300 31/25 A2972 RMK TCU SW LAST
cycle: 4

Station Type Date Time Source
PTSA TAF 2019/06/17 22:12 UTC NOAA

TAF PTSA 172207Z 1722/1818 07011KT P6SM VCSH SCT020 BKN130
TEMPO 1722/1801 BKN020

Example: see airport list